This is the latest recevied weather packets stored in our database for station/object YO3FVR-WX. If no packets are shown the sender has not sent any weather packets the latest 1 day(s).
| Time | Temp. | Humidity | Pressure | Rain* | Wind** | Luminosity | Snow |
|---|---|---|---|---|---|---|---|
| 1777989433 | 35.56° C | 40% | 1009.7 hPa | 0 mm | 0 m/s | - | - |
| 1777988205 | 35.56° C | 40% | 1009.7 hPa | 0 mm | 0 m/s | - | - |
| 1777987002 | 35.56° C | 37% | 1009.7 hPa | 0 mm | 0 m/s | - | - |
| 1777985791 | 35.56° C | 37% | 1009.7 hPa | 0 mm | 0 m/s | - | - |
| 1777984587 | 35.56° C | 37% | 1009.7 hPa | 0 mm | 0 m/s | - | - |
| 1777983378 | 35.56° C | 37% | 1009.7 hPa | 0 mm | 0 m/s | - | - |
| 1777982133 | 31.67° C | 37% | 1010.2 hPa | 0 mm | 0 m/s | - | - |
| 1777980914 | 31.67° C | 37% | 1010.2 hPa | 0 mm | 0 m/s | - | - |
| 1777979681 | 26.11° C | 49% | 1010.2 hPa | 0 mm | 0 m/s | - | - |
| 1777978453 | 23.33° C | 49% | 1010.2 hPa | 0 mm | 0 m/s | - | - |
| 1777977221 | 21.67° C | 51% | 1010.5 hPa | 0 mm | 0 m/s | - | - |
| 1777975994 | 21.67° C | 52% | 1010.5 hPa | 0 mm | 0 m/s | - | - |
| 1777974792 | 21.67° C | 53% | 1010.7 hPa | 0 mm | 0 m/s | - | - |
| 1777973589 | 21.11° C | 54% | 1010.9 hPa | 0 mm | 0 m/s | - | - |
| 1777972362 | 20.56° C | 54% | 1011.1 hPa | 0 mm | 0 m/s | - | - |
| 1777971160 | 20.56° C | 54% | 1011.2 hPa | 0 mm | 0 m/s | - | - |
| 1777969960 | 20° C | 55% | 1011.2 hPa | 0 mm | 0 m/s | - | - |
| 1777968760 | 20° C | 55% | 1011.3 hPa | 0 mm | 0 m/s | - | - |
| 1777967531 | 19.44° C | 57% | 1011.4 hPa | 0 mm | 0 m/s | - | - |
| 1777966304 | 19.44° C | 58% | 1011.3 hPa | 0 mm | 0 m/s | - | - |
| 1777965101 | 18.89° C | 60% | 1011.4 hPa | 0 mm | 0 m/s | - | - |
| 1777963901 | 17.22° C | 69% | 1011.3 hPa | 0 mm | 0 m/s | - | - |
| 1777962673 | 17.22° C | 69% | 1011 hPa | 0 mm | 0 m/s | - | - |
| 1777961442 | 14.44° C | 70% | 1011 hPa | 0 mm | 0 m/s | - | - |
| 1777960241 | 13.33° C | 72% | 1011 hPa | 0 mm | 0 m/s | - | - |
* Rain latest hour (hover to see other rain measurements)
** Current wind speed in m/s (hover to see current wind gust speed)